sensor_id;sensor_type;location;lat;lon;timestamp;pressure;altitude;pressure_sealevel;temperature;humidity
10652;BME280;5374;42.742;23.266;2023-07-20T00:02:05;95064.72;;;23.29;74.38
10652;BME280;5374;42.742;23.266;2023-07-20T00:04:55;95079.53;;;23.19;74.39
10652;BME280;5374;42.742;23.266;2023-07-20T00:07:43;95089.91;;;23.17;73.35
10652;BME280;5374;42.742;23.266;2023-07-20T00:10:32;95091.03;;;23.16;73.29
10652;BME280;5374;42.742;23.266;2023-07-20T00:13:20;95103.47;;;23.17;73.77
10652;BME280;5374;42.742;23.266;2023-07-20T00:16:07;95094.31;;;23.22;75.19
10652;BME280;5374;42.742;23.266;2023-07-20T00:18:54;95089.91;;;23.17;75.34
10652;BME280;5374;42.742;23.266;2023-07-20T00:21:42;95083.72;;;23.16;75.28
10652;BME280;5374;42.742;23.266;2023-07-20T00:24:30;95088.56;;;23.11;74.79
10652;BME280;5374;42.742;23.266;2023-07-20T00:27:18;95097.22;;;22.92;75.26
10652;BME280;5374;42.742;23.266;2023-07-20T00:30:06;95108.19;;;22.96;75.15
10652;BME280;5374;42.742;23.266;2023-07-20T00:32:53;95090.66;;;22.81;75.43
10652;BME280;5374;42.742;23.266;2023-07-20T00:35:40;95108.25;;;22.87;76.64
10652;BME280;5374;42.742;23.266;2023-07-20T00:38:29;95102.19;;;22.90;76.31
10652;BME280;5374;42.742;23.266;2023-07-20T00:41:16;95096.31;;;22.88;76.30
10652;BME280;5374;42.742;23.266;2023-07-20T00:44:04;95094.94;;;22.82;76.78
10652;BME280;5374;42.742;23.266;2023-07-20T00:46:51;95086.31;;;22.68;76.85
10652;BME280;5374;42.742;23.266;2023-07-20T00:49:39;95075.81;;;22.66;77.07
10652;BME280;5374;42.742;23.266;2023-07-20T00:52:27;95076.84;;;22.74;77.97
10652;BME280;5374;42.742;23.266;2023-07-20T00:55:16;95086.56;;;22.75;77.95
10652;BME280;5374;42.742;23.266;2023-07-20T00:58:03;95070.97;;;22.72;77.75
10652;BME280;5374;42.742;23.266;2023-07-20T01:00:51;95072.56;;;22.73;77.93
10652;BME280;5374;42.742;23.266;2023-07-20T01:03:38;95045.44;;;22.48;78.46
10652;BME280;5374;42.742;23.266;2023-07-20T01:06:30;95066.22;;;22.69;78.31
10652;BME280;5374;42.742;23.266;2023-07-20T01:09:20;95071.19;;;22.67;78.45
10652;BME280;5374;42.742;23.266;2023-07-20T01:12:14;95073.41;;;22.52;79.19
10652;BME280;5374;42.742;23.266;2023-07-20T01:15:06;95072.75;;;22.56;80.85
10652;BME280;5374;42.742;23.266;2023-07-20T01:17:54;95073.78;;;22.63;81.27
10652;BME280;5374;42.742;23.266;2023-07-20T01:20:41;95086.84;;;22.61;81.33
10652;BME280;5374;42.742;23.266;2023-07-20T01:30:14;95097.53;;;22.45;80.97
10652;BME280;5374;42.742;23.266;2023-07-20T01:33:05;95086.09;;;22.40;80.82
10652;BME280;5374;42.742;23.266;2023-07-20T01:35:56;95086.91;;;22.40;81.09
10652;BME280;5374;42.742;23.266;2023-07-20T01:38:44;95081.16;;;22.42;81.22
10652;BME280;5374;42.742;23.266;2023-07-20T01:41:32;95081.47;;;22.40;82.44
10652;BME280;5374;42.742;23.266;2023-07-20T01:44:20;95049.06;;;22.20;82.58
10652;BME280;5374;42.742;23.266;2023-07-20T01:47:08;95086.44;;;22.38;83.26
10652;BME280;5374;42.742;23.266;2023-07-20T01:49:56;95040.72;;;22.12;83.31
10652;BME280;5374;42.742;23.266;2023-07-20T01:52:43;95086.00;;;22.36;83.41
10652;BME280;5374;42.742;23.266;2023-07-20T01:55:30;95082.38;;;22.32;83.45
10652;BME280;5374;42.742;23.266;2023-07-20T01:58:17;95074.91;;;22.29;84.04
10652;BME280;5374;42.742;23.266;2023-07-20T02:01:05;95073.22;;;22.25;83.96
10652;BME280;5374;42.742;23.266;2023-07-20T02:03:52;95078.16;;;22.23;84.57
10652;BME280;5374;42.742;23.266;2023-07-20T02:06:41;95069.91;;;22.19;84.61
10652;BME280;5374;42.742;23.266;2023-07-20T02:09:28;95075.31;;;22.19;84.93
10652;BME280;5374;42.742;23.266;2023-07-20T02:12:15;95039.38;;;21.98;85.07
10652;BME280;5374;42.742;23.266;2023-07-20T02:15:03;95071.25;;;22.13;86.05
10652;BME280;5374;42.742;23.266;2023-07-20T02:17:50;95075.66;;;22.17;85.84
10652;BME280;5374;42.742;23.266;2023-07-20T02:20:37;95080.22;;;22.05;86.86
10652;BME280;5374;42.742;23.266;2023-07-20T02:23:26;95066.50;;;21.89;87.30
10652;BME280;5374;42.742;23.266;2023-07-20T02:26:13;95068.06;;;21.90;87.55
10652;BME280;5374;42.742;23.266;2023-07-20T02:29:00;95042.88;;;21.77;87.72
10652;BME280;5374;42.742;23.266;2023-07-20T02:31:50;95063.66;;;21.86;87.92
10652;BME280;5374;42.742;23.266;2023-07-20T02:34:37;95067.16;;;21.86;87.78
10652;BME280;5374;42.742;23.266;2023-07-20T02:37:25;95051.63;;;21.74;88.67
10652;BME280;5374;42.742;23.266;2023-07-20T02:40:13;95048.16;;;21.74;89.09
10652;BME280;5374;42.742;23.266;2023-07-20T02:43:00;95052.44;;;21.75;89.22
10652;BME280;5374;42.742;23.266;2023-07-20T02:45:47;95049.13;;;21.69;89.46
10652;BME280;5374;42.742;23.266;2023-07-20T02:48:34;95044.19;;;21.71;89.31
10652;BME280;5374;42.742;23.266;2023-07-20T02:51:22;95051.06;;;21.69;89.44
10652;BME280;5374;42.742;23.266;2023-07-20T02:54:09;95055.69;;;21.68;88.96
10652;BME280;5374;42.742;23.266;2023-07-20T02:56:57;95062.22;;;21.67;88.68
10652;BME280;5374;42.742;23.266;2023-07-20T02:59:44;95047.16;;;21.58;88.60
10652;BME280;5374;42.742;23.266;2023-07-20T03:02:32;95053.81;;;21.60;88.42
10652;BME280;5374;42.742;23.266;2023-07-20T03:05:19;95055.13;;;21.54;88.57
10652;BME280;5374;42.742;23.266;2023-07-20T03:08:06;95045.63;;;21.48;88.84
10652;BME280;5374;42.742;23.266;2023-07-20T03:10:54;95053.72;;;21.48;88.86
10652;BME280;5374;42.742;23.266;2023-07-20T03:13:42;95063.03;;;21.38;89.27
10652;BME280;5374;42.742;23.266;2023-07-20T03:16:29;95056.34;;;21.36;89.29
10652;BME280;5374;42.742;23.266;2023-07-20T03:19:18;95063.66;;;21.35;89.15
10652;BME280;5374;42.742;23.266;2023-07-20T03:22:05;95069.22;;;21.39;88.92
10652;BME280;5374;42.742;23.266;2023-07-20T03:24:52;95070.81;;;21.40;88.24
10652;BME280;5374;42.742;23.266;2023-07-20T03:27:40;95075.09;;;21.41;88.03
10652;BME280;5374;42.742;23.266;2023-07-20T03:30:28;95052.34;;;21.42;88.02
10652;BME280;5374;42.742;23.266;2023-07-20T03:33:16;95068.16;;;21.52;89.59
10652;BME280;5374;42.742;23.266;2023-07-20T03:36:03;95069.09;;;21.56;91.44
10652;BME280;5374;42.742;23.266;2023-07-20T03:38:50;95080.56;;;21.74;89.83
10652;BME280;5374;42.742;23.266;2023-07-20T03:41:38;95052.38;;;21.63;87.49
10652;BME280;5374;42.742;23.266;2023-07-20T03:44:25;95071.28;;;21.83;86.76
10652;BME280;5374;42.742;23.266;2023-07-20T03:47:14;95077.09;;;21.94;85.45
10652;BME280;5374;42.742;23.266;2023-07-20T03:50:01;95071.78;;;22.06;84.93
10652;BME280;5374;42.742;23.266;2023-07-20T03:52:49;95081.34;;;22.37;83.31
10652;BME280;5374;42.742;23.266;2023-07-20T03:55:36;95058.34;;;22.76;80.82
10652;BME280;5374;42.742;23.266;2023-07-20T03:58:23;95071.75;;;23.42;77.35
10652;BME280;5374;42.742;23.266;2023-07-20T04:01:10;95067.63;;;23.84;73.77
10652;BME280;5374;42.742;23.266;2023-07-20T04:04:00;95070.38;;;24.40;70.93
10652;BME280;5374;42.742;23.266;2023-07-20T04:06:47;95064.88;;;24.80;67.64
10652;BME280;5374;42.742;23.266;2023-07-20T04:09:34;95071.81;;;25.09;66.31
10652;BME280;5374;42.742;23.266;2023-07-20T04:12:21;95050.53;;;25.27;64.46
10652;BME280;5374;42.742;23.266;2023-07-20T04:15:09;95044.25;;;25.58;63.41
10652;BME280;5374;42.742;23.266;2023-07-20T04:17:56;95047.53;;;26.02;62.06
10652;BME280;5374;42.742;23.266;2023-07-20T04:20:45;95059.69;;;26.43;60.49
10652;BME280;5374;42.742;23.266;2023-07-20T04:23:32;95044.47;;;26.62;59.08
10652;BME280;5374;42.742;23.266;2023-07-20T04:26:21;95055.72;;;27.02;58.56
10652;BME280;5374;42.742;23.266;2023-07-20T04:29:08;95046.22;;;27.42;56.34
10652;BME280;5374;42.742;23.266;2023-07-20T04:31:55;95048.28;;;27.75;55.23
10652;BME280;5374;42.742;23.266;2023-07-20T04:34:43;95028.28;;;27.94;53.93
10652;BME280;5374;42.742;23.266;2023-07-20T04:37:32;95031.03;;;28.27;53.33
10652;BME280;5374;42.742;23.266;2023-07-20T04:40:19;95045.44;;;28.57;52.46
10652;BME280;5374;42.742;23.266;2023-07-20T04:43:07;95025.28;;;28.69;51.77
10652;BME280;5374;42.742;23.266;2023-07-20T04:45:54;95034.28;;;29.14;50.71
10652;BME280;5374;42.742;23.266;2023-07-20T04:48:41;95039.00;;;29.68;49.31
10652;BME280;5374;42.742;23.266;2023-07-20T04:51:29;95041.03;;;30.62;46.85
10652;BME280;5374;42.742;23.266;2023-07-20T04:54:17;95047.78;;;31.53;44.77
10652;BME280;5374;42.742;23.266;2023-07-20T04:57:11;95056.47;;;32.78;41.78
10652;BME280;5374;42.742;23.266;2023-07-20T04:59:58;95067.50;;;33.40;40.49
10652;BME280;5374;42.742;23.266;2023-07-20T05:02:45;95066.16;;;34.38;37.87
10652;BME280;5374;42.742;23.266;2023-07-20T05:05:34;95074.59;;;35.45;36.44
10652;BME280;5374;42.742;23.266;2023-07-20T05:08:23;95070.47;;;36.43;35.37
10652;BME280;5374;42.742;23.266;2023-07-20T05:11:12;95078.81;;;37.35;33.05
10652;BME280;5374;42.742;23.266;2023-07-20T05:13:59;95090.47;;;38.24;32.02
10652;BME280;5374;42.742;23.266;2023-07-20T05:16:46;95096.22;;;38.87;30.73
10652;BME280;5374;42.742;23.266;2023-07-20T05:19:34;95081.97;;;39.40;30.29
10652;BME280;5374;42.742;23.266;2023-07-20T05:22:21;95069.72;;;39.75;29.76
10652;BME280;5374;42.742;23.266;2023-07-20T05:25:10;95079.66;;;40.11;29.61
10652;BME280;5374;42.742;23.266;2023-07-20T05:27:59;95067.00;;;40.31;28.55
10652;BME280;5374;42.742;23.266;2023-07-20T05:30:46;95085.06;;;40.49;28.50
10652;BME280;5374;42.742;23.266;2023-07-20T05:33:33;95103.63;;;40.30;28.15
10652;BME280;5374;42.742;23.266;2023-07-20T05:36:20;95096.38;;;39.85;28.69
10652;BME280;5374;42.742;23.266;2023-07-20T05:39:07;95097.06;;;39.39;29.09
10652;BME280;5374;42.742;23.266;2023-07-20T05:41:55;95096.84;;;38.66;29.92
10652;BME280;5374;42.742;23.266;2023-07-20T05:44:43;95116.31;;;38.21;32.19
10652;BME280;5374;42.742;23.266;2023-07-20T05:47:31;95118.06;;;37.82;31.77
10652;BME280;5374;42.742;23.266;2023-07-20T05:50:20;95104.78;;;37.57;31.90
10652;BME280;5374;42.742;23.266;2023-07-20T05:53:07;95101.25;;;37.24;32.56
10652;BME280;5374;42.742;23.266;2023-07-20T05:55:54;95106.91;;;36.81;33.17
10652;BME280;5374;42.742;23.266;2023-07-20T05:58:41;95089.06;;;36.62;33.87
10652;BME280;5374;42.742;23.266;2023-07-20T06:01:30;95095.31;;;36.67;34.29
10652;BME280;5374;42.742;23.266;2023-07-20T06:04:17;95102.34;;;36.51;34.05
10652;BME280;5374;42.742;23.266;2023-07-20T06:07:04;95084.91;;;36.35;34.41
10652;BME280;5374;42.742;23.266;2023-07-20T06:09:53;95086.03;;;36.37;34.29
10652;BME280;5374;42.742;23.266;2023-07-20T06:12:40;95096.66;;;36.39;34.28
10652;BME280;5374;42.742;23.266;2023-07-20T06:15:30;95080.34;;;36.24;33.27
10652;BME280;5374;42.742;23.266;2023-07-20T06:18:19;95079.44;;;36.08;33.60
10652;BME280;5374;42.742;23.266;2023-07-20T06:21:07;95076.44;;;35.98;34.52
10652;BME280;5374;42.742;23.266;2023-07-20T06:23:54;95078.38;;;36.02;35.00
10652;BME280;5374;42.742;23.266;2023-07-20T06:26:41;95081.44;;;36.07;34.15
10652;BME280;5374;42.742;23.266;2023-07-20T06:29:28;95073.44;;;36.13;34.02
10652;BME280;5374;42.742;23.266;2023-07-20T06:32:15;95065.69;;;36.04;34.47
10652;BME280;5374;42.742;23.266;2023-07-20T06:35:05;95063.84;;;36.17;34.28
10652;BME280;5374;42.742;23.266;2023-07-20T06:37:52;95067.72;;;36.43;33.08
10652;BME280;5374;42.742;23.266;2023-07-20T06:40:39;95073.63;;;36.02;33.93
10652;BME280;5374;42.742;23.266;2023-07-20T06:43:26;95079.84;;;35.86;33.93
10652;BME280;5374;42.742;23.266;2023-07-20T06:46:14;95049.22;;;35.97;33.47
10652;BME280;5374;42.742;23.266;2023-07-20T06:49:01;95060.66;;;36.19;33.30
10652;BME280;5374;42.742;23.266;2023-07-20T06:51:50;95064.81;;;36.50;33.65
10652;BME280;5374;42.742;23.266;2023-07-20T06:54:37;95074.44;;;36.42;33.04
10652;BME280;5374;42.742;23.266;2023-07-20T06:57:24;95088.63;;;36.84;34.74
10652;BME280;5374;42.742;23.266;2023-07-20T07:00:14;95084.16;;;36.90;34.05
10652;BME280;5374;42.742;23.266;2023-07-20T07:03:01;95091.94;;;36.59;33.75
10652;BME280;5374;42.742;23.266;2023-07-20T07:05:48;95095.91;;;36.15;34.18
10652;BME280;5374;42.742;23.266;2023-07-20T07:08:37;95106.97;;;35.45;35.46
10652;BME280;5374;42.742;23.266;2023-07-20T07:11:24;95117.66;;;35.12;36.93
10652;BME280;5374;42.742;23.266;2023-07-20T07:14:12;95120.41;;;34.82;37.44
10652;BME280;5374;42.742;23.266;2023-07-20T07:16:59;95127.50;;;34.83;37.55
10652;BME280;5374;42.742;23.266;2023-07-20T07:19:46;95142.00;;;35.21;36.98
10652;BME280;5374;42.742;23.266;2023-07-20T07:22:33;95146.13;;;35.63;36.56
10652;BME280;5374;42.742;23.266;2023-07-20T07:25:22;95135.06;;;36.13;36.18
10652;BME280;5374;42.742;23.266;2023-07-20T07:28:09;95131.63;;;36.69;34.84
10652;BME280;5374;42.742;23.266;2023-07-20T07:30:56;95126.31;;;36.97;33.72
10652;BME280;5374;42.742;23.266;2023-07-20T07:33:43;95123.66;;;37.10;32.57
10652;BME280;5374;42.742;23.266;2023-07-20T07:36:31;95104.81;;;37.05;33.39
10652;BME280;5374;42.742;23.266;2023-07-20T07:39:18;95110.16;;;37.12;32.87
10652;BME280;5374;42.742;23.266;2023-07-20T07:42:06;95124.72;;;37.16;33.13
10652;BME280;5374;42.742;23.266;2023-07-20T07:44:54;95112.75;;;37.39;33.34
10652;BME280;5374;42.742;23.266;2023-07-20T07:47:41;95085.75;;;37.43;32.57
10652;BME280;5374;42.742;23.266;2023-07-20T07:50:28;95093.09;;;37.34;32.86
10652;BME280;5374;42.742;23.266;2023-07-20T07:53:15;95108.00;;;37.40;33.91
10652;BME280;5374;42.742;23.266;2023-07-20T07:56:03;95101.06;;;37.31;33.93
10652;BME280;5374;42.742;23.266;2023-07-20T07:58:51;95106.78;;;37.41;34.48
10652;BME280;5374;42.742;23.266;2023-07-20T08:01:38;95107.06;;;37.10;34.87
10652;BME280;5374;42.742;23.266;2023-07-20T08:04:26;95121.59;;;37.14;34.95
10652;BME280;5374;42.742;23.266;2023-07-20T08:07:13;95128.25;;;37.01;35.92
10652;BME280;5374;42.742;23.266;2023-07-20T08:10:00;95116.56;;;36.73;35.90
10652;BME280;5374;42.742;23.266;2023-07-20T08:12:47;95134.63;;;36.15;36.38
10652;BME280;5374;42.742;23.266;2023-07-20T08:15:37;95113.69;;;35.67;36.05
10652;BME280;5374;42.742;23.266;2023-07-20T08:18:24;95146.34;;;35.49;36.26
10652;BME280;5374;42.742;23.266;2023-07-20T08:21:11;95133.13;;;35.37;35.68
10652;BME280;5374;42.742;23.266;2023-07-20T08:23:58;95126.59;;;35.23;34.69
10652;BME280;5374;42.742;23.266;2023-07-20T08:26:45;95110.44;;;34.91;35.22
10652;BME280;5374;42.742;23.266;2023-07-20T08:29:32;95097.81;;;34.94;35.30
10652;BME280;5374;42.742;23.266;2023-07-20T08:32:21;95132.50;;;34.95;35.26
10652;BME280;5374;42.742;23.266;2023-07-20T08:35:08;95148.34;;;34.87;35.15
10652;BME280;5374;42.742;23.266;2023-07-20T08:37:56;95131.72;;;34.94;35.70
10652;BME280;5374;42.742;23.266;2023-07-20T08:40:44;95128.38;;;35.07;36.38
10652;BME280;5374;42.742;23.266;2023-07-20T08:43:33;95119.81;;;35.28;35.09
10652;BME280;5374;42.742;23.266;2023-07-20T08:46:21;95123.31;;;35.32;35.21
10652;BME280;5374;42.742;23.266;2023-07-20T08:49:11;95123.25;;;35.36;33.72
10652;BME280;5374;42.742;23.266;2023-07-20T08:51:59;95108.88;;;35.21;34.39
10652;BME280;5374;42.742;23.266;2023-07-20T08:54:47;95109.44;;;35.36;35.07
10652;BME280;5374;42.742;23.266;2023-07-20T08:57:36;95104.03;;;35.28;34.91
10652;BME280;5374;42.742;23.266;2023-07-20T09:00:24;95108.91;;;35.17;35.42
10652;BME280;5374;42.742;23.266;2023-07-20T09:03:12;95093.91;;;35.18;35.71
10652;BME280;5374;42.742;23.266;2023-07-20T09:06:03;95108.84;;;35.48;34.82
10652;BME280;5374;42.742;23.266;2023-07-20T09:08:50;95094.88;;;35.58;36.20
10652;BME280;5374;42.742;23.266;2023-07-20T09:11:38;95097.63;;;35.35;35.42
10652;BME280;5374;42.742;23.266;2023-07-20T09:14:25;95087.91;;;35.50;35.55
10652;BME280;5374;42.742;23.266;2023-07-20T09:17:13;95085.56;;;35.72;34.97
10652;BME280;5374;42.742;23.266;2023-07-20T09:20:02;95078.97;;;35.66;34.26
10652;BME280;5374;42.742;23.266;2023-07-20T09:22:56;95069.72;;;35.76;34.67
10652;BME280;5374;42.742;23.266;2023-07-20T09:25:43;95071.19;;;35.84;34.85
10652;BME280;5374;42.742;23.266;2023-07-20T09:28:41;95080.16;;;35.92;35.85
10652;BME280;5374;42.742;23.266;2023-07-20T09:31:29;95070.81;;;35.82;33.92
10652;BME280;5374;42.742;23.266;2023-07-20T09:34:17;95074.31;;;35.86;34.53
10652;BME280;5374;42.742;23.266;2023-07-20T09:37:04;95080.00;;;35.99;33.86
10652;BME280;5374;42.742;23.266;2023-07-20T09:39:53;95053.78;;;36.07;33.84
10652;BME280;5374;42.742;23.266;2023-07-20T09:42:40;95064.47;;;36.28;33.44
10652;BME280;5374;42.742;23.266;2023-07-20T09:45:29;95073.06;;;36.34;33.02
10652;BME280;5374;42.742;23.266;2023-07-20T09:48:16;95066.88;;;36.46;32.61
10652;BME280;5374;42.742;23.266;2023-07-20T09:51:08;95039.41;;;36.75;32.76
10652;BME280;5374;42.742;23.266;2023-07-20T09:53:55;95030.88;;;36.66;30.99
10652;BME280;5374;42.742;23.266;2023-07-20T09:56:45;95043.66;;;36.40;30.90
10652;BME280;5374;42.742;23.266;2023-07-20T09:59:34;95042.91;;;35.96;31.91
10652;BME280;5374;42.742;23.266;2023-07-20T10:02:25;95044.13;;;35.72;32.93
10652;BME280;5374;42.742;23.266;2023-07-20T10:05:17;95053.28;;;35.46;31.35
10652;BME280;5374;42.742;23.266;2023-07-20T10:08:08;95026.19;;;35.10;31.62
10652;BME280;5374;42.742;23.266;2023-07-20T10:10:59;95045.78;;;35.19;32.42
10652;BME280;5374;42.742;23.266;2023-07-20T10:13:51;95038.31;;;34.89;32.73
10652;BME280;5374;42.742;23.266;2023-07-20T10:16:43;95051.72;;;34.91;33.11
10652;BME280;5374;42.742;23.266;2023-07-20T10:19:40;95059.44;;;34.73;33.22
10652;BME280;5374;42.742;23.266;2023-07-20T10:22:35;95077.13;;;34.75;32.98
10652;BME280;5374;42.742;23.266;2023-07-20T10:25:23;95067.38;;;34.67;33.13
10652;BME280;5374;42.742;23.266;2023-07-20T10:28:10;95036.28;;;34.63;33.82
10652;BME280;5374;42.742;23.266;2023-07-20T10:30:59;95033.81;;;34.42;36.94
10652;BME280;5374;42.742;23.266;2023-07-20T10:33:46;95027.16;;;34.05;39.93
10652;BME280;5374;42.742;23.266;2023-07-20T10:36:44;95026.50;;;33.90;40.86
10652;BME280;5374;42.742;23.266;2023-07-20T10:39:34;94991.09;;;33.48;40.61
10652;BME280;5374;42.742;23.266;2023-07-20T10:42:21;95026.28;;;33.71;40.93
10652;BME280;5374;42.742;23.266;2023-07-20T10:45:09;94990.19;;;33.61;41.90
10652;BME280;5374;42.742;23.266;2023-07-20T10:47:57;94971.69;;;33.62;40.51
10652;BME280;5374;42.742;23.266;2023-07-20T10:50:45;94986.63;;;33.65;40.01
10652;BME280;5374;42.742;23.266;2023-07-20T10:53:33;95016.00;;;33.82;40.67
10652;BME280;5374;42.742;23.266;2023-07-20T10:56:21;95005.81;;;33.72;39.27
10652;BME280;5374;42.742;23.266;2023-07-20T10:59:18;95004.75;;;34.00;38.01
10652;BME280;5374;42.742;23.266;2023-07-20T11:02:07;94989.53;;;34.22;38.09
10652;BME280;5374;42.742;23.266;2023-07-20T11:04:55;94997.00;;;34.55;36.27
10652;BME280;5374;42.742;23.266;2023-07-20T11:07:42;94980.63;;;34.72;35.02
10652;BME280;5374;42.742;23.266;2023-07-20T11:10:29;94986.31;;;34.88;35.06
10652;BME280;5374;42.742;23.266;2023-07-20T11:13:21;94979.91;;;34.94;35.23
10652;BME280;5374;42.742;23.266;2023-07-20T11:16:09;94981.47;;;34.95;34.85
10652;BME280;5374;42.742;23.266;2023-07-20T11:18:56;94960.53;;;34.98;34.59
10652;BME280;5374;42.742;23.266;2023-07-20T11:21:46;94981.66;;;35.08;34.73
10652;BME280;5374;42.742;23.266;2023-07-20T11:24:33;94961.72;;;34.97;33.94
10652;BME280;5374;42.742;23.266;2023-07-20T11:27:21;94967.91;;;34.78;33.70
10652;BME280;5374;42.742;23.266;2023-07-20T11:30:15;94960.38;;;34.82;34.83
10652;BME280;5374;42.742;23.266;2023-07-20T11:33:03;94959.56;;;35.08;34.36
10652;BME280;5374;42.742;23.266;2023-07-20T11:35:50;94943.03;;;35.32;35.42
10652;BME280;5374;42.742;23.266;2023-07-20T11:38:41;94948.78;;;35.41;34.89
10652;BME280;5374;42.742;23.266;2023-07-20T11:41:28;94935.75;;;35.41;33.97
10652;BME280;5374;42.742;23.266;2023-07-20T11:44:16;94925.56;;;35.38;33.74
10652;BME280;5374;42.742;23.266;2023-07-20T11:47:04;94936.19;;;35.40;34.09
10652;BME280;5374;42.742;23.266;2023-07-20T11:49:52;94913.00;;;35.34;34.63
10652;BME280;5374;42.742;23.266;2023-07-20T11:52:40;94934.75;;;35.51;35.24
10652;BME280;5374;42.742;23.266;2023-07-20T11:55:29;94921.53;;;35.43;34.36
10652;BME280;5374;42.742;23.266;2023-07-20T11:58:17;94924.13;;;35.26;33.19
10652;BME280;5374;42.742;23.266;2023-07-20T12:01:05;94901.16;;;35.10;33.23
10652;BME280;5374;42.742;23.266;2023-07-20T12:03:52;94920.31;;;35.20;34.06
10652;BME280;5374;42.742;23.266;2023-07-20T12:06:39;94922.16;;;35.27;34.24
10652;BME280;5374;42.742;23.266;2023-07-20T12:09:26;94908.75;;;35.49;33.93
10652;BME280;5374;42.742;23.266;2023-07-20T12:12:15;94901.69;;;35.48;33.86
10652;BME280;5374;42.742;23.266;2023-07-20T12:15:20;94908.06;;;35.45;33.50
10652;BME280;5374;42.742;23.266;2023-07-20T12:18:08;94909.75;;;35.39;32.73
10652;BME280;5374;42.742;23.266;2023-07-20T12:20:59;94900.56;;;35.22;33.33
10652;BME280;5374;42.742;23.266;2023-07-20T12:23:46;94905.06;;;35.36;33.18
10652;BME280;5374;42.742;23.266;2023-07-20T12:26:34;94900.63;;;35.42;32.43
10652;BME280;5374;42.742;23.266;2023-07-20T12:29:22;94893.56;;;35.41;32.05
10652;BME280;5374;42.742;23.266;2023-07-20T12:32:09;94893.75;;;35.50;31.18
10652;BME280;5374;42.742;23.266;2023-07-20T12:34:56;94892.06;;;35.36;31.70
10652;BME280;5374;42.742;23.266;2023-07-20T12:37:45;94888.81;;;35.41;30.58
10652;BME280;5374;42.742;23.266;2023-07-20T12:40:34;94895.59;;;35.37;31.91
10652;BME280;5374;42.742;23.266;2023-07-20T12:43:22;94887.72;;;35.12;31.71
10652;BME280;5374;42.742;23.266;2023-07-20T12:46:11;94884.91;;;35.15;31.62
10652;BME280;5374;42.742;23.266;2023-07-20T12:48:58;94880.94;;;35.16;32.67
10652;BME280;5374;42.742;23.266;2023-07-20T12:51:46;94884.66;;;35.06;31.94
10652;BME280;5374;42.742;23.266;2023-07-20T12:54:33;94873.47;;;34.93;31.70
10652;BME280;5374;42.742;23.266;2023-07-20T12:57:20;94858.75;;;34.77;32.04
10652;BME280;5374;42.742;23.266;2023-07-20T13:00:09;94868.78;;;34.90;31.59
10652;BME280;5374;42.742;23.266;2023-07-20T13:02:58;94846.56;;;34.74;32.16
10652;BME280;5374;42.742;23.266;2023-07-20T13:05:46;94870.63;;;34.74;32.41
10652;BME280;5374;42.742;23.266;2023-07-20T13:08:34;94877.38;;;34.69;32.14
10652;BME280;5374;42.742;23.266;2023-07-20T13:11:21;94866.88;;;34.60;32.47
10652;BME280;5374;42.742;23.266;2023-07-20T13:14:09;94865.16;;;34.70;31.24
10652;BME280;5374;42.742;23.266;2023-07-20T13:16:57;94867.97;;;34.67;32.40
10652;BME280;5374;42.742;23.266;2023-07-20T13:19:46;94874.56;;;34.73;33.44
10652;BME280;5374;42.742;23.266;2023-07-20T13:22:33;94870.63;;;34.74;32.82
10652;BME280;5374;42.742;23.266;2023-07-20T13:25:21;94862.59;;;34.83;32.58
10652;BME280;5374;42.742;23.266;2023-07-20T13:28:08;94866.50;;;34.85;33.21
10652;BME280;5374;42.742;23.266;2023-07-20T13:30:55;94859.00;;;34.86;32.97
10652;BME280;5374;42.742;23.266;2023-07-20T13:33:42;94868.53;;;34.81;32.94
10652;BME280;5374;42.742;23.266;2023-07-20T13:36:30;94845.47;;;34.68;33.99
10652;BME280;5374;42.742;23.266;2023-07-20T13:39:17;94856.47;;;34.72;34.04
10652;BME280;5374;42.742;23.266;2023-07-20T13:42:05;94854.66;;;34.61;33.75
10652;BME280;5374;42.742;23.266;2023-07-20T13:44:52;94858.38;;;34.51;34.07
10652;BME280;5374;42.742;23.266;2023-07-20T13:47:39;94856.84;;;34.47;34.13
10652;BME280;5374;42.742;23.266;2023-07-20T13:50:27;94856.19;;;34.39;33.71
10652;BME280;5374;42.742;23.266;2023-07-20T13:53:15;94863.44;;;34.26;33.09
10652;BME280;5374;42.742;23.266;2023-07-20T13:56:02;94850.72;;;34.09;31.85
10652;BME280;5374;42.742;23.266;2023-07-20T13:58:50;94860.78;;;34.19;31.80
10652;BME280;5374;42.742;23.266;2023-07-20T14:01:37;94862.81;;;34.15;31.85
10652;BME280;5374;42.742;23.266;2023-07-20T14:04:24;94866.47;;;34.08;32.04
10652;BME280;5374;42.742;23.266;2023-07-20T14:07:11;94859.06;;;34.02;32.41
10652;BME280;5374;42.742;23.266;2023-07-20T14:10:00;94863.94;;;33.90;33.12
10652;BME280;5374;42.742;23.266;2023-07-20T14:12:47;94866.19;;;33.99;33.02
10652;BME280;5374;42.742;23.266;2023-07-20T14:15:35;94859.56;;;33.93;33.55
10652;BME280;5374;42.742;23.266;2023-07-20T14:18:22;94849.84;;;33.85;32.86
10652;BME280;5374;42.742;23.266;2023-07-20T14:21:09;94862.53;;;33.79;31.83
10652;BME280;5374;42.742;23.266;2023-07-20T14:23:56;94855.69;;;33.56;33.50
10652;BME280;5374;42.742;23.266;2023-07-20T14:26:45;94864.78;;;33.53;34.10
10652;BME280;5374;42.742;23.266;2023-07-20T14:29:34;94852.59;;;33.51;33.31
10652;BME280;5374;42.742;23.266;2023-07-20T14:32:22;94858.28;;;33.37;33.04
10652;BME280;5374;42.742;23.266;2023-07-20T14:35:09;94851.03;;;33.12;34.02
10652;BME280;5374;42.742;23.266;2023-07-20T14:37:56;94860.50;;;33.11;34.40
10652;BME280;5374;42.742;23.266;2023-07-20T14:40:43;94848.06;;;32.96;35.10
10652;BME280;5374;42.742;23.266;2023-07-20T14:43:33;94861.75;;;33.03;35.08
10652;BME280;5374;42.742;23.266;2023-07-20T14:46:20;94856.34;;;32.92;34.58
10652;BME280;5374;42.742;23.266;2023-07-20T14:49:07;94851.69;;;32.86;34.51
10652;BME280;5374;42.742;23.266;2023-07-20T14:51:54;94845.53;;;32.68;35.94
10652;BME280;5374;42.742;23.266;2023-07-20T14:54:41;94831.47;;;32.58;36.02
10652;BME280;5374;42.742;23.266;2023-07-20T14:57:28;94852.63;;;32.69;35.74